sensor_id;sensor_type;location;lat;lon;timestamp;temperature;humidity
4530;DHT22;2277;51.626;7.516;2022-12-11T00:01:50;2.90;99.90
4530;DHT22;2277;51.626;7.516;2022-12-11T00:04:15;3.00;99.90
4530;DHT22;2277;51.626;7.516;2022-12-11T00:06:41;3.00;99.90
4530;DHT22;2277;51.626;7.516;2022-12-11T00:09:07;3.00;99.90
4530;DHT22;2277;51.626;7.516;2022-12-11T00:11:32;3.00;99.90
4530;DHT22;2277;51.626;7.516;2022-12-11T00:13:58;3.00;99.90
4530;DHT22;2277;51.626;7.516;2022-12-11T00:16:24;3.00;99.90
4530;DHT22;2277;51.626;7.516;2022-12-11T00:18:49;3.00;99.90
4530;DHT22;2277;51.626;7.516;2022-12-11T00:21:15;2.90;99.90
4530;DHT22;2277;51.626;7.516;2022-12-11T00:23:41;3.00;99.90
4530;DHT22;2277;51.626;7.516;2022-12-11T00:26:10;3.00;99.90
4530;DHT22;2277;51.626;7.516;2022-12-11T00:28:36;3.00;99.90
4530;DHT22;2277;51.626;7.516;2022-12-11T00:31:05;3.00;99.90
4530;DHT22;2277;51.626;7.516;2022-12-11T00:33:31;2.90;99.90
4530;DHT22;2277;51.626;7.516;2022-12-11T00:35:57;2.90;99.90
4530;DHT22;2277;51.626;7.516;2022-12-11T00:38:23;2.90;99.90
4530;DHT22;2277;51.626;7.516;2022-12-11T00:40:49;2.90;99.90
4530;DHT22;2277;51.626;7.516;2022-12-11T00:43:15;2.90;99.90
4530;DHT22;2277;51.626;7.516;2022-12-11T00:45:42;2.90;99.90
4530;DHT22;2277;51.626;7.516;2022-12-11T00:48:09;2.90;99.90
4530;DHT22;2277;51.626;7.516;2022-12-11T00:50:35;2.90;99.90
4530;DHT22;2277;51.626;7.516;2022-12-11T00:53:01;2.80;99.90
4530;DHT22;2277;51.626;7.516;2022-12-11T00:55:27;2.80;99.90
4530;DHT22;2277;51.626;7.516;2022-12-11T00:57:54;2.80;99.90
4530;DHT22;2277;51.626;7.516;2022-12-11T01:00:20;2.70;99.90
4530;DHT22;2277;51.626;7.516;2022-12-11T01:02:48;2.70;99.90
4530;DHT22;2277;51.626;7.516;2022-12-11T01:05:19;2.60;99.90
4530;DHT22;2277;51.626;7.516;2022-12-11T01:07:45;2.70;99.90
4530;DHT22;2277;51.626;7.516;2022-12-11T01:10:14;2.70;99.90
4530;DHT22;2277;51.626;7.516;2022-12-11T01:12:56;2.70;99.90
4530;DHT22;2277;51.626;7.516;2022-12-11T01:15:25;2.60;99.90
4530;DHT22;2277;51.626;7.516;2022-12-11T01:17:50;2.50;99.90
4530;DHT22;2277;51.626;7.516;2022-12-11T01:20:17;2.30;99.90
4530;DHT22;2277;51.626;7.516;2022-12-11T01:22:43;2.20;99.90
4530;DHT22;2277;51.626;7.516;2022-12-11T01:25:09;2.10;99.90
4530;DHT22;2277;51.626;7.516;2022-12-11T01:27:35;2.10;99.90
4530;DHT22;2277;51.626;7.516;2022-12-11T01:30:02;2.10;99.90
4530;DHT22;2277;51.626;7.516;2022-12-11T01:32:27;2.10;99.90
4530;DHT22;2277;51.626;7.516;2022-12-11T01:34:53;2.20;99.90
4530;DHT22;2277;51.626;7.516;2022-12-11T01:37:19;2.20;99.90
4530;DHT22;2277;51.626;7.516;2022-12-11T01:39:45;2.20;99.90
4530;DHT22;2277;51.626;7.516;2022-12-11T01:42:17;2.10;99.90
4530;DHT22;2277;51.626;7.516;2022-12-11T01:47:09;2.20;99.90
4530;DHT22;2277;51.626;7.516;2022-12-11T01:49:35;2.30;99.90
4530;DHT22;2277;51.626;7.516;2022-12-11T01:52:02;2.30;99.90
4530;DHT22;2277;51.626;7.516;2022-12-11T01:54:30;2.40;99.90
4530;DHT22;2277;51.626;7.516;2022-12-11T01:57:00;2.40;99.90
4530;DHT22;2277;51.626;7.516;2022-12-11T01:59:28;2.50;99.90
4530;DHT22;2277;51.626;7.516;2022-12-11T02:04:23;2.50;99.90
4530;DHT22;2277;51.626;7.516;2022-12-11T02:06:51;2.60;99.90
4530;DHT22;2277;51.626;7.516;2022-12-11T02:09:28;2.60;99.90
4530;DHT22;2277;51.626;7.516;2022-12-11T02:12:10;2.60;99.90
4530;DHT22;2277;51.626;7.516;2022-12-11T02:17:49;2.60;99.90
4530;DHT22;2277;51.626;7.516;2022-12-11T02:23:23;2.70;99.90
4530;DHT22;2277;51.626;7.516;2022-12-11T02:28:55;2.80;99.90
4530;DHT22;2277;51.626;7.516;2022-12-11T02:31:37;2.80;99.90
4530;DHT22;2277;51.626;7.516;2022-12-11T02:34:19;2.80;99.90
4530;DHT22;2277;51.626;7.516;2022-12-11T02:36:53;2.80;99.90
4530;DHT22;2277;51.626;7.516;2022-12-11T02:39:22;2.80;99.90
4530;DHT22;2277;51.626;7.516;2022-12-11T02:41:50;2.80;99.90
4530;DHT22;2277;51.626;7.516;2022-12-11T02:44:23;2.90;99.90
4530;DHT22;2277;51.626;7.516;2022-12-11T02:46:50;2.90;99.90
4530;DHT22;2277;51.626;7.516;2022-12-11T02:49:18;2.90;99.90
4530;DHT22;2277;51.626;7.516;2022-12-11T02:51:45;2.90;99.90
4530;DHT22;2277;51.626;7.516;2022-12-11T02:54:15;2.90;99.90
4530;DHT22;2277;51.626;7.516;2022-12-11T02:56:49;3.00;99.90
4530;DHT22;2277;51.626;7.516;2022-12-11T02:59:26;3.00;99.90
4530;DHT22;2277;51.626;7.516;2022-12-11T03:01:54;3.00;99.90
4530;DHT22;2277;51.626;7.516;2022-12-11T03:04:20;3.00;99.90
4530;DHT22;2277;51.626;7.516;2022-12-11T03:06:52;3.00;99.90
4530;DHT22;2277;51.626;7.516;2022-12-11T03:09:19;3.00;99.90
4530;DHT22;2277;51.626;7.516;2022-12-11T03:11:45;3.00;99.90
4530;DHT22;2277;51.626;7.516;2022-12-11T03:14:11;3.00;99.90
4530;DHT22;2277;51.626;7.516;2022-12-11T03:16:59;2.90;99.90
4530;DHT22;2277;51.626;7.516;2022-12-11T03:22:08;2.90;99.90
4530;DHT22;2277;51.626;7.516;2022-12-11T03:24:48;2.90;99.90
4530;DHT22;2277;51.626;7.516;2022-12-11T03:27:35;2.90;99.90
4530;DHT22;2277;51.626;7.516;2022-12-11T03:30:09;2.90;99.90
4530;DHT22;2277;51.626;7.516;2022-12-11T03:33:02;3.00;99.90
4530;DHT22;2277;51.626;7.516;2022-12-11T03:35:28;3.00;99.90
4530;DHT22;2277;51.626;7.516;2022-12-11T03:37:59;2.90;99.90
4530;DHT22;2277;51.626;7.516;2022-12-11T03:40:27;2.90;99.90
4530;DHT22;2277;51.626;7.516;2022-12-11T03:42:55;2.90;99.90
4530;DHT22;2277;51.626;7.516;2022-12-11T03:45:22;2.80;99.90
4530;DHT22;2277;51.626;7.516;2022-12-11T03:47:51;2.70;99.90
4530;DHT22;2277;51.626;7.516;2022-12-11T03:50:18;2.60;99.90
4530;DHT22;2277;51.626;7.516;2022-12-11T03:52:45;2.70;99.90
4530;DHT22;2277;51.626;7.516;2022-12-11T03:55:13;2.70;99.90
4530;DHT22;2277;51.626;7.516;2022-12-11T03:57:40;2.80;99.90
4530;DHT22;2277;51.626;7.516;2022-12-11T04:00:13;2.90;99.90
4530;DHT22;2277;51.626;7.516;2022-12-11T04:02:40;2.80;99.90
4530;DHT22;2277;51.626;7.516;2022-12-11T04:05:07;2.80;99.90
4530;DHT22;2277;51.626;7.516;2022-12-11T04:07:33;2.80;99.90
4530;DHT22;2277;51.626;7.516;2022-12-11T04:09:59;2.90;99.90
4530;DHT22;2277;51.626;7.516;2022-12-11T04:12:24;2.90;99.90
4530;DHT22;2277;51.626;7.516;2022-12-11T04:14:50;2.90;99.90
4530;DHT22;2277;51.626;7.516;2022-12-11T04:17:29;3.00;99.90
4530;DHT22;2277;51.626;7.516;2022-12-11T04:20:13;3.00;99.90
4530;DHT22;2277;51.626;7.516;2022-12-11T04:22:57;2.90;99.90
4530;DHT22;2277;51.626;7.516;2022-12-11T04:25:41;2.90;99.90
4530;DHT22;2277;51.626;7.516;2022-12-11T04:28:06;2.90;99.90
4530;DHT22;2277;51.626;7.516;2022-12-11T04:30:32;3.00;99.90
4530;DHT22;2277;51.626;7.516;2022-12-11T04:32:57;3.00;99.90
4530;DHT22;2277;51.626;7.516;2022-12-11T04:35:23;3.00;99.90
4530;DHT22;2277;51.626;7.516;2022-12-11T04:37:49;3.00;99.90
4530;DHT22;2277;51.626;7.516;2022-12-11T04:40:16;3.00;99.90
4530;DHT22;2277;51.626;7.516;2022-12-11T04:42:42;2.90;99.90
4530;DHT22;2277;51.626;7.516;2022-12-11T04:45:09;3.00;99.90
4530;DHT22;2277;51.626;7.516;2022-12-11T04:47:36;3.00;99.90
4530;DHT22;2277;51.626;7.516;2022-12-11T04:50:03;3.00;99.90
4530;DHT22;2277;51.626;7.516;2022-12-11T04:52:29;3.00;99.90
4530;DHT22;2277;51.626;7.516;2022-12-11T04:54:55;3.00;99.90
4530;DHT22;2277;51.626;7.516;2022-12-11T04:57:20;3.00;99.90
4530;DHT22;2277;51.626;7.516;2022-12-11T04:59:46;3.00;99.90
4530;DHT22;2277;51.626;7.516;2022-12-11T05:02:12;2.90;99.90
4530;DHT22;2277;51.626;7.516;2022-12-11T05:04:38;2.90;99.90
4530;DHT22;2277;51.626;7.516;2022-12-11T05:07:04;2.90;99.90
4530;DHT22;2277;51.626;7.516;2022-12-11T05:09:29;2.90;99.90
4530;DHT22;2277;51.626;7.516;2022-12-11T05:11:55;3.00;99.90
4530;DHT22;2277;51.626;7.516;2022-12-11T05:14:21;3.00;99.90
4530;DHT22;2277;51.626;7.516;2022-12-11T05:16:47;3.00;99.90
4530;DHT22;2277;51.626;7.516;2022-12-11T05:19:12;3.00;99.90
4530;DHT22;2277;51.626;7.516;2022-12-11T05:21:38;3.00;99.90
4530;DHT22;2277;51.626;7.516;2022-12-11T05:24:04;3.10;99.90
4530;DHT22;2277;51.626;7.516;2022-12-11T05:26:30;3.10;99.90
4530;DHT22;2277;51.626;7.516;2022-12-11T05:28:55;3.10;99.90
4530;DHT22;2277;51.626;7.516;2022-12-11T05:31:23;3.10;99.90
4530;DHT22;2277;51.626;7.516;2022-12-11T05:33:50;3.10;99.90
4530;DHT22;2277;51.626;7.516;2022-12-11T05:36:26;3.10;99.90
4530;DHT22;2277;51.626;7.516;2022-12-11T05:38:52;3.20;99.90
4530;DHT22;2277;51.626;7.516;2022-12-11T05:41:21;3.20;99.90
4530;DHT22;2277;51.626;7.516;2022-12-11T05:43:47;3.20;99.90
4530;DHT22;2277;51.626;7.516;2022-12-11T05:46:17;3.20;99.90
4530;DHT22;2277;51.626;7.516;2022-12-11T05:48:45;3.20;99.90
4530;DHT22;2277;51.626;7.516;2022-12-11T05:51:13;3.10;99.90
4530;DHT22;2277;51.626;7.516;2022-12-11T05:53:39;3.00;99.90
4530;DHT22;2277;51.626;7.516;2022-12-11T05:56:09;3.00;99.90
4530;DHT22;2277;51.626;7.516;2022-12-11T05:58:35;2.70;99.90
4530;DHT22;2277;51.626;7.516;2022-12-11T06:01:01;2.50;99.90
4530;DHT22;2277;51.626;7.516;2022-12-11T06:03:27;2.40;99.90
4530;DHT22;2277;51.626;7.516;2022-12-11T06:05:53;2.40;99.90
4530;DHT22;2277;51.626;7.516;2022-12-11T06:08:18;2.50;99.90
4530;DHT22;2277;51.626;7.516;2022-12-11T06:10:48;2.50;99.90
4530;DHT22;2277;51.626;7.516;2022-12-11T06:13:14;2.60;99.90
4530;DHT22;2277;51.626;7.516;2022-12-11T06:15:40;2.50;99.90
4530;DHT22;2277;51.626;7.516;2022-12-11T06:18:06;2.60;99.90
4530;DHT22;2277;51.626;7.516;2022-12-11T06:20:33;2.30;99.90
4530;DHT22;2277;51.626;7.516;2022-12-11T06:22:59;2.30;99.90
4530;DHT22;2277;51.626;7.516;2022-12-11T06:25:25;2.30;99.90
4530;DHT22;2277;51.626;7.516;2022-12-11T06:27:50;2.20;99.90
4530;DHT22;2277;51.626;7.516;2022-12-11T06:30:16;2.10;99.90
4530;DHT22;2277;51.626;7.516;2022-12-11T06:32:42;2.10;99.90
4530;DHT22;2277;51.626;7.516;2022-12-11T06:35:08;2.10;99.90
4530;DHT22;2277;51.626;7.516;2022-12-11T06:37:35;2.10;99.90
4530;DHT22;2277;51.626;7.516;2022-12-11T06:40:01;2.20;99.90
4530;DHT22;2277;51.626;7.516;2022-12-11T06:42:29;2.30;99.90
4530;DHT22;2277;51.626;7.516;2022-12-11T06:44:55;2.40;99.90
4530;DHT22;2277;51.626;7.516;2022-12-11T06:47:22;2.40;99.90
4530;DHT22;2277;51.626;7.516;2022-12-11T06:49:47;2.30;99.90
4530;DHT22;2277;51.626;7.516;2022-12-11T06:52:13;2.20;99.90
4530;DHT22;2277;51.626;7.516;2022-12-11T06:54:38;2.10;99.90
4530;DHT22;2277;51.626;7.516;2022-12-11T06:57:04;2.00;99.90
4530;DHT22;2277;51.626;7.516;2022-12-11T06:59:29;1.90;99.90
4530;DHT22;2277;51.626;7.516;2022-12-11T07:01:55;2.00;99.90
4530;DHT22;2277;51.626;7.516;2022-12-11T07:04:21;2.00;99.90
4530;DHT22;2277;51.626;7.516;2022-12-11T07:06:49;2.20;99.90
4530;DHT22;2277;51.626;7.516;2022-12-11T07:09:14;2.20;99.90
4530;DHT22;2277;51.626;7.516;2022-12-11T07:11:40;2.30;99.90
4530;DHT22;2277;51.626;7.516;2022-12-11T07:14:06;2.30;99.90
4530;DHT22;2277;51.626;7.516;2022-12-11T07:16:31;2.30;99.90
4530;DHT22;2277;51.626;7.516;2022-12-11T07:18:57;2.40;99.90
4530;DHT22;2277;51.626;7.516;2022-12-11T07:21:23;2.50;99.90
4530;DHT22;2277;51.626;7.516;2022-12-11T07:23:49;2.50;99.90
4530;DHT22;2277;51.626;7.516;2022-12-11T07:26:18;2.50;99.90
4530;DHT22;2277;51.626;7.516;2022-12-11T07:28:44;2.60;99.90
4530;DHT22;2277;51.626;7.516;2022-12-11T07:31:22;2.60;99.90
4530;DHT22;2277;51.626;7.516;2022-12-11T07:33:55;2.70;99.90
4530;DHT22;2277;51.626;7.516;2022-12-11T07:36:22;2.70;99.90
4530;DHT22;2277;51.626;7.516;2022-12-11T07:38:48;2.80;99.90
4530;DHT22;2277;51.626;7.516;2022-12-11T07:41:14;2.80;99.90
4530;DHT22;2277;51.626;7.516;2022-12-11T07:43:41;2.80;99.90
4530;DHT22;2277;51.626;7.516;2022-12-11T07:46:10;2.90;99.90
4530;DHT22;2277;51.626;7.516;2022-12-11T07:48:37;2.90;99.90
4530;DHT22;2277;51.626;7.516;2022-12-11T07:51:18;2.90;99.90
4530;DHT22;2277;51.626;7.516;2022-12-11T07:53:46;2.90;99.90
4530;DHT22;2277;51.626;7.516;2022-12-11T07:56:13;2.90;99.90
4530;DHT22;2277;51.626;7.516;2022-12-11T07:58:38;2.90;99.90
4530;DHT22;2277;51.626;7.516;2022-12-11T08:01:25;2.90;99.90
4530;DHT22;2277;51.626;7.516;2022-12-11T08:03:52;3.00;99.90
4530;DHT22;2277;51.626;7.516;2022-12-11T08:06:18;2.90;99.90
4530;DHT22;2277;51.626;7.516;2022-12-11T08:08:46;2.90;99.90
4530;DHT22;2277;51.626;7.516;2022-12-11T08:11:13;2.90;99.90
4530;DHT22;2277;51.626;7.516;2022-12-11T08:13:39;2.80;99.90
4530;DHT22;2277;51.626;7.516;2022-12-11T08:16:07;2.70;99.90
4530;DHT22;2277;51.626;7.516;2022-12-11T08:18:35;2.70;99.90
4530;DHT22;2277;51.626;7.516;2022-12-11T08:21:11;2.70;99.90
4530;DHT22;2277;51.626;7.516;2022-12-11T08:23:37;2.80;99.90
4530;DHT22;2277;51.626;7.516;2022-12-11T08:26:04;2.90;99.90
4530;DHT22;2277;51.626;7.516;2022-12-11T08:28:31;2.90;99.90
4530;DHT22;2277;51.626;7.516;2022-12-11T08:30:57;3.00;99.90
4530;DHT22;2277;51.626;7.516;2022-12-11T08:33:23;3.00;99.90
4530;DHT22;2277;51.626;7.516;2022-12-11T08:35:49;2.90;99.90
4530;DHT22;2277;51.626;7.516;2022-12-11T08:38:14;2.70;99.90
4530;DHT22;2277;51.626;7.516;2022-12-11T08:40:40;2.70;99.90
4530;DHT22;2277;51.626;7.516;2022-12-11T08:43:06;2.60;99.90
4530;DHT22;2277;51.626;7.516;2022-12-11T08:45:31;2.50;99.90
4530;DHT22;2277;51.626;7.516;2022-12-11T08:47:58;2.50;99.90
4530;DHT22;2277;51.626;7.516;2022-12-11T08:50:24;2.40;99.90
4530;DHT22;2277;51.626;7.516;2022-12-11T08:52:49;2.40;99.90
4530;DHT22;2277;51.626;7.516;2022-12-11T08:55:15;2.60;99.90
4530;DHT22;2277;51.626;7.516;2022-12-11T08:57:41;2.60;99.90
4530;DHT22;2277;51.626;7.516;2022-12-11T09:00:08;2.80;99.90
4530;DHT22;2277;51.626;7.516;2022-12-11T09:02:36;2.80;99.90
4530;DHT22;2277;51.626;7.516;2022-12-11T09:05:03;2.90;99.90
4530;DHT22;2277;51.626;7.516;2022-12-11T09:07:35;2.90;99.90
4530;DHT22;2277;51.626;7.516;2022-12-11T09:10:01;3.00;99.90
4530;DHT22;2277;51.626;7.516;2022-12-11T09:12:27;2.90;99.90
4530;DHT22;2277;51.626;7.516;2022-12-11T09:14:53;2.80;99.90
4530;DHT22;2277;51.626;7.516;2022-12-11T09:17:19;2.90;99.90
4530;DHT22;2277;51.626;7.516;2022-12-11T09:19:45;2.90;99.90
4530;DHT22;2277;51.626;7.516;2022-12-11T09:22:10;2.90;99.90
4530;DHT22;2277;51.626;7.516;2022-12-11T09:24:37;2.90;99.90
4530;DHT22;2277;51.626;7.516;2022-12-11T09:27:03;2.70;99.90
4530;DHT22;2277;51.626;7.516;2022-12-11T09:29:29;2.80;99.90
4530;DHT22;2277;51.626;7.516;2022-12-11T09:31:55;2.70;99.90
4530;DHT22;2277;51.626;7.516;2022-12-11T09:34:21;2.70;99.90
4530;DHT22;2277;51.626;7.516;2022-12-11T09:36:47;2.60;99.90
4530;DHT22;2277;51.626;7.516;2022-12-11T09:39:13;2.70;99.90
4530;DHT22;2277;51.626;7.516;2022-12-11T09:41:47;2.80;99.90
4530;DHT22;2277;51.626;7.516;2022-12-11T09:46:43;2.80;99.90
4530;DHT22;2277;51.626;7.516;2022-12-11T09:49:36;2.80;99.90
4530;DHT22;2277;51.626;7.516;2022-12-11T09:52:27;2.70;99.90
4530;DHT22;2277;51.626;7.516;2022-12-11T09:54:59;2.70;99.90
4530;DHT22;2277;51.626;7.516;2022-12-11T09:57:44;2.60;99.90
4530;DHT22;2277;51.626;7.516;2022-12-11T10:00:14;2.50;99.90
4530;DHT22;2277;51.626;7.516;2022-12-11T10:03:21;2.50;99.90
4530;DHT22;2277;51.626;7.516;2022-12-11T10:16:39;2.30;99.90
4530;DHT22;2277;51.626;7.516;2022-12-11T10:19:13;2.50;99.90
4530;DHT22;2277;51.626;7.516;2022-12-11T10:21:41;2.60;99.90
4530;DHT22;2277;51.626;7.516;2022-12-11T10:24:24;2.70;99.90
4530;DHT22;2277;51.626;7.516;2022-12-11T10:26:57;2.80;99.90
4530;DHT22;2277;51.626;7.516;2022-12-11T10:29:23;2.80;99.90
4530;DHT22;2277;51.626;7.516;2022-12-11T10:36:45;2.90;99.90
4530;DHT22;2277;51.626;7.516;2022-12-11T10:39:17;2.90;99.90
4530;DHT22;2277;51.626;7.516;2022-12-11T10:41:45;3.00;99.90
4530;DHT22;2277;51.626;7.516;2022-12-11T10:44:17;3.10;99.90
4530;DHT22;2277;51.626;7.516;2022-12-11T10:46:45;3.20;99.90
4530;DHT22;2277;51.626;7.516;2022-12-11T10:49:25;3.00;99.90
4530;DHT22;2277;51.626;7.516;2022-12-11T10:51:52;2.90;99.90
4530;DHT22;2277;51.626;7.516;2022-12-11T10:56:56;2.90;99.90
4530;DHT22;2277;51.626;7.516;2022-12-11T10:59:45;2.90;99.90
4530;DHT22;2277;51.626;7.516;2022-12-11T11:04:59;2.70;99.90
4530;DHT22;2277;51.626;7.516;2022-12-11T11:07:28;2.70;99.90
4530;DHT22;2277;51.626;7.516;2022-12-11T11:12:49;2.70;99.90
4530;DHT22;2277;51.626;7.516;2022-12-11T11:15:18;2.70;99.90
4530;DHT22;2277;51.626;7.516;2022-12-11T11:17:47;2.70;99.90
4530;DHT22;2277;51.626;7.516;2022-12-11T11:20:16;2.80;99.90
4530;DHT22;2277;51.626;7.516;2022-12-11T11:22:49;2.70;99.90
4530;DHT22;2277;51.626;7.516;2022-12-11T11:25:21;2.70;99.90
4530;DHT22;2277;51.626;7.516;2022-12-11T11:30:29;2.50;99.90
4530;DHT22;2277;51.626;7.516;2022-12-11T11:32:58;2.40;99.90
4530;DHT22;2277;51.626;7.516;2022-12-11T11:35:28;2.50;99.90
4530;DHT22;2277;51.626;7.516;2022-12-11T11:40:51;2.30;99.90
4530;DHT22;2277;51.626;7.516;2022-12-11T12:00:00;2.40;99.90
4530;DHT22;2277;51.626;7.516;2022-12-11T12:02:35;2.50;99.90
4530;DHT22;2277;51.626;7.516;2022-12-11T12:05:02;2.60;99.90
4530;DHT22;2277;51.626;7.516;2022-12-11T12:10:46;2.70;99.90
4530;DHT22;2277;51.626;7.516;2022-12-11T12:13:27;2.90;99.90
4530;DHT22;2277;51.626;7.516;2022-12-11T12:15:57;3.00;99.90
4530;DHT22;2277;51.626;7.516;2022-12-11T12:18:41;3.00;99.90
4530;DHT22;2277;51.626;7.516;2022-12-11T12:21:34;3.00;99.90
4530;DHT22;2277;51.626;7.516;2022-12-11T12:24:25;3.10;99.90
4530;DHT22;2277;51.626;7.516;2022-12-11T12:27:12;3.00;99.90
4530;DHT22;2277;51.626;7.516;2022-12-11T12:30:05;3.00;99.90
4530;DHT22;2277;51.626;7.516;2022-12-11T12:32:39;3.10;99.90
4530;DHT22;2277;51.626;7.516;2022-12-11T12:35:29;3.10;99.90
4530;DHT22;2277;51.626;7.516;2022-12-11T12:48:51;3.10;99.90
4530;DHT22;2277;51.626;7.516;2022-12-11T12:51:19;3.20;99.90
4530;DHT22;2277;51.626;7.516;2022-12-11T12:54:03;3.10;99.90
4530;DHT22;2277;51.626;7.516;2022-12-11T12:56:32;3.20;99.90
4530;DHT22;2277;51.626;7.516;2022-12-11T12:58:58;3.10;99.90
4530;DHT22;2277;51.626;7.516;2022-12-11T13:01:25;3.00;99.90
4530;DHT22;2277;51.626;7.516;2022-12-11T13:04:04;3.00;99.90
4530;DHT22;2277;51.626;7.516;2022-12-11T13:06:36;3.10;99.90
4530;DHT22;2277;51.626;7.516;2022-12-11T13:11:43;3.00;99.90
4530;DHT22;2277;51.626;7.516;2022-12-11T13:16:43;2.80;99.90
4530;DHT22;2277;51.626;7.516;2022-12-11T13:21:57;2.80;99.90
4530;DHT22;2277;51.626;7.516;2022-12-11T13:24:26;2.90;99.90
4530;DHT22;2277;51.626;7.516;2022-12-11T13:26:52;3.00;99.90
4530;DHT22;2277;51.626;7.516;2022-12-11T13:29:39;3.10;99.90
4530;DHT22;2277;51.626;7.516;2022-12-11T13:34:39;3.30;99.90
4530;DHT22;2277;51.626;7.516;2022-12-11T13:39:46;3.30;99.90
4530;DHT22;2277;51.626;7.516;2022-12-11T13:42:39;3.30;99.90
4530;DHT22;2277;51.626;7.516;2022-12-11T13:45:59;3.30;99.90
4530;DHT22;2277;51.626;7.516;2022-12-11T13:48:32;3.40;99.90
4530;DHT22;2277;51.626;7.516;2022-12-11T13:50:59;3.40;99.90
4530;DHT22;2277;51.626;7.516;2022-12-11T13:53:26;3.40;99.90
4530;DHT22;2277;51.626;7.516;2022-12-11T13:56:06;3.40;99.90
4530;DHT22;2277;51.626;7.516;2022-12-11T13:58:37;3.50;99.90
4530;DHT22;2277;51.626;7.516;2022-12-11T14:01:07;3.50;99.90
4530;DHT22;2277;51.626;7.516;2022-12-11T14:03:38;3.50;99.90
4530;DHT22;2277;51.626;7.516;2022-12-11T14:06:08;3.50;99.90
4530;DHT22;2277;51.626;7.516;2022-12-11T14:08:36;3.50;99.90
4530;DHT22;2277;51.626;7.516;2022-12-11T14:11:03;3.60;99.90
4530;DHT22;2277;51.626;7.516;2022-12-11T14:13:38;3.60;99.90
4530;DHT22;2277;51.626;7.516;2022-12-11T14:16:05;3.60;99.90
4530;DHT22;2277;51.626;7.516;2022-12-11T14:18:33;3.60;99.90
4530;DHT22;2277;51.626;7.516;2022-12-11T14:21:02;3.60;99.90
4530;DHT22;2277;51.626;7.516;2022-12-11T14:23:35;3.60;99.90
4530;DHT22;2277;51.626;7.516;2022-12-11T14:26:14;3.60;99.90
4530;DHT22;2277;51.626;7.516;2022-12-11T14:28:42;3.60;99.90
4530;DHT22;2277;51.626;7.516;2022-12-11T14:31:08;3.60;99.90
4530;DHT22;2277;51.626;7.516;2022-12-11T14:33:41;3.60;99.90
4530;DHT22;2277;51.626;7.516;2022-12-11T14:36:08;3.60;99.90
4530;DHT22;2277;51.626;7.516;2022-12-11T14:38:38;3.60;99.90
4530;DHT22;2277;51.626;7.516;2022-12-11T14:41:15;3.60;99.90
4530;DHT22;2277;51.626;7.516;2022-12-11T14:43:49;3.60;99.90
4530;DHT22;2277;51.626;7.516;2022-12-11T14:46:32;3.60;99.90
4530;DHT22;2277;51.626;7.516;2022-12-11T14:49:02;3.60;99.90
4530;DHT22;2277;51.626;7.516;2022-12-11T14:51:34;3.60;99.90
4530;DHT22;2277;51.626;7.516;2022-12-11T14:54:03;3.60;99.90
4530;DHT22;2277;51.626;7.516;2022-12-11T14:56:30;3.60;99.90
4530;DHT22;2277;51.626;7.516;2022-12-11T14:59:05;3.60;99.90
4530;DHT22;2277;51.626;7.516;2022-12-11T15:01:35;3.60;99.90
4530;DHT22;2277;51.626;7.516;2022-12-11T15:04:21;3.60;99.90
4530;DHT22;2277;51.626;7.516;2022-12-11T15:06:50;3.60;99.90
4530;DHT22;2277;51.626;7.516;2022-12-11T15:12:16;3.60;99.90
4530;DHT22;2277;51.626;7.516;2022-12-11T15:14:55;3.60;99.90
4530;DHT22;2277;51.626;7.516;2022-12-11T15:17:23;3.60;99.90
4530;DHT22;2277;51.626;7.516;2022-12-11T15:19:52;3.60;99.90
4530;DHT22;2277;51.626;7.516;2022-12-11T15:22:21;3.60;99.90
4530;DHT22;2277;51.626;7.516;2022-12-11T15:24:52;3.60;99.90
4530;DHT22;2277;51.626;7.516;2022-12-11T15:27:29;3.60;99.90
4530;DHT22;2277;51.626;7.516;2022-12-11T15:29:55;3.60;99.90
4530;DHT22;2277;51.626;7.516;2022-12-11T15:32:21;3.60;99.90
4530;DHT22;2277;51.626;7.516;2022-12-11T15:34:50;3.60;99.90
4530;DHT22;2277;51.626;7.516;2022-12-11T15:37:23;3.60;99.90
4530;DHT22;2277;51.626;7.516;2022-12-11T15:39:50;3.60;99.90
4530;DHT22;2277;51.626;7.516;2022-12-11T15:44:49;3.60;99.90
4530;DHT22;2277;51.626;7.516;2022-12-11T15:47:25;3.60;99.90
4530;DHT22;2277;51.626;7.516;2022-12-11T15:50:14;3.60;99.90
4530;DHT22;2277;51.626;7.516;2022-12-11T15:52:41;3.60;99.90
4530;DHT22;2277;51.626;7.516;2022-12-11T15:55:07;3.60;99.90
4530;DHT22;2277;51.626;7.516;2022-12-11T15:57:33;3.60;99.90
4530;DHT22;2277;51.626;7.516;2022-12-11T15:59:59;3.60;99.90
4530;DHT22;2277;51.626;7.516;2022-12-11T16:02:24;3.60;99.90
4530;DHT22;2277;51.626;7.516;2022-12-11T16:04:54;3.60;99.90
4530;DHT22;2277;51.626;7.516;2022-12-11T16:07:22;3.60;99.90
4530;DHT22;2277;51.626;7.516;2022-12-11T16:09:48;3.60;99.90
4530;DHT22;2277;51.626;7.516;2022-12-11T16:12:14;3.60;99.90
4530;DHT22;2277;51.626;7.516;2022-12-11T16:14:43;3.60;99.90
4530;DHT22;2277;51.626;7.516;2022-12-11T16:17:11;3.60;99.90
4530;DHT22;2277;51.626;7.516;2022-12-11T16:19:37;3.50;99.90
4530;DHT22;2277;51.626;7.516;2022-12-11T16:22:03;3.40;99.90
4530;DHT22;2277;51.626;7.516;2022-12-11T16:24:29;3.40;99.90
4530;DHT22;2277;51.626;7.516;2022-12-11T16:26:54;3.20;99.90
4530;DHT22;2277;51.626;7.516;2022-12-11T16:29:20;3.20;99.90
4530;DHT22;2277;51.626;7.516;2022-12-11T16:31:46;3.30;99.90
4530;DHT22;2277;51.626;7.516;2022-12-11T16:34:12;3.20;99.90
4530;DHT22;2277;51.626;7.516;2022-12-11T16:36:38;3.30;99.90
4530;DHT22;2277;51.626;7.516;2022-12-11T16:39:03;3.30;99.90
4530;DHT22;2277;51.626;7.516;2022-12-11T16:41:29;3.30;99.90
4530;DHT22;2277;51.626;7.516;2022-12-11T16:43:54;3.20;99.90
4530;DHT22;2277;51.626;7.516;2022-12-11T16:46:21;3.20;99.90
4530;DHT22;2277;51.626;7.516;2022-12-11T16:48:47;3.20;99.90
4530;DHT22;2277;51.626;7.516;2022-12-11T16:51:13;3.20;99.90
4530;DHT22;2277;51.626;7.516;2022-12-11T16:53:39;3.20;99.90
4530;DHT22;2277;51.626;7.516;2022-12-11T16:56:06;3.20;99.90
4530;DHT22;2277;51.626;7.516;2022-12-11T16:58:32;3.10;99.90
4530;DHT22;2277;51.626;7.516;2022-12-11T17:00:57;3.20;99.90
4530;DHT22;2277;51.626;7.516;2022-12-11T17:03:30;3.10;99.90
4530;DHT22;2277;51.626;7.516;2022-12-11T17:05:57;3.20;99.90
4530;DHT22;2277;51.626;7.516;2022-12-11T17:08:23;3.30;99.90
4530;DHT22;2277;51.626;7.516;2022-12-11T17:10:51;3.30;99.90
4530;DHT22;2277;51.626;7.516;2022-12-11T17:13:17;3.30;99.90
4530;DHT22;2277;51.626;7.516;2022-12-11T17:15:43;3.30;99.90
4530;DHT22;2277;51.626;7.516;2022-12-11T17:18:10;3.40;99.90
4530;DHT22;2277;51.626;7.516;2022-12-11T17:20:40;3.40;99.90
4530;DHT22;2277;51.626;7.516;2022-12-11T17:23:07;3.40;99.90
4530;DHT22;2277;51.626;7.516;2022-12-11T17:25:34;3.40;99.90
4530;DHT22;2277;51.626;7.516;2022-12-11T17:28:03;3.30;99.90
4530;DHT22;2277;51.626;7.516;2022-12-11T17:30:28;3.20;99.90
4530;DHT22;2277;51.626;7.516;2022-12-11T17:32:54;3.20;99.90
4530;DHT22;2277;51.626;7.516;2022-12-11T17:35:19;3.10;99.90
4530;DHT22;2277;51.626;7.516;2022-12-11T17:37:45;3.10;99.90
4530;DHT22;2277;51.626;7.516;2022-12-11T17:40:11;3.10;99.90
4530;DHT22;2277;51.626;7.516;2022-12-11T17:42:37;3.10;99.90
4530;DHT22;2277;51.626;7.516;2022-12-11T17:45:02;3.00;99.90
4530;DHT22;2277;51.626;7.516;2022-12-11T17:47:28;3.10;99.90
4530;DHT22;2277;51.626;7.516;2022-12-11T17:49:53;3.00;99.90
4530;DHT22;2277;51.626;7.516;2022-12-11T17:52:19;3.10;99.90
4530;DHT22;2277;51.626;7.516;2022-12-11T17:54:45;3.00;99.90
4530;DHT22;2277;51.626;7.516;2022-12-11T17:57:10;2.90;99.90
4530;DHT22;2277;51.626;7.516;2022-12-11T17:59:36;2.80;99.90
4530;DHT22;2277;51.626;7.516;2022-12-11T18:02:01;2.80;99.90
4530;DHT22;2277;51.626;7.516;2022-12-11T18:04:27;2.90;99.90
4530;DHT22;2277;51.626;7.516;2022-12-11T18:06:53;2.90;99.90
4530;DHT22;2277;51.626;7.516;2022-12-11T18:09:18;3.00;99.90